Time;durP1;ratioP1;P1;durP2;ratioP2;P2;SDS_P1;SDS_P2;PMS_P1;PMS_P2;Temp;Humidity;BMP_temperature;BMP_pressure;BME280_temperature;BME280_humidity;BME280_pressure;Samples;Min_cycle;Max_cycle;Signal;HPM_P1;HPM_P2
2022/04/01 00:01:58;;;;;;;4.20;2.13;;;;;;;7.57;86.38;97236.88;5097380;28;20044;-70
2022/04/01 00:04:27;;;;;;;4.75;2.00;;;;;;;7.58;86.67;97242.78;5097069;28;20048;-70
2022/04/01 00:06:58;;;;;;;3.23;2.00;;;;;;;7.40;86.73;97228.88;5097140;28;20037;-70
2022/04/01 00:09:27;;;;;;;4.22;2.42;;;;;;;7.46;86.53;97232.97;5097135;28;20044;-70
2022/04/01 00:11:56;;;;;;;3.43;1.77;;;;;;;7.50;87.05;97230.28;5097098;28;20044;-70
2022/04/01 00:14:25;;;;;;;5.03;2.77;;;;;;;7.42;86.84;97214.44;5096943;28;20078;-70
2022/04/01 00:16:54;;;;;;;4.05;2.47;;;;;;;7.53;86.63;97230.22;5096979;28;20316;-70
2022/04/01 00:19:23;;;;;;;4.30;2.67;;;;;;;7.50;87.02;97227.75;5096956;28;20064;-69
2022/04/01 00:21:52;;;;;;;4.40;2.40;;;;;;;7.54;86.64;97231.03;5096802;28;20044;-70
2022/04/01 00:24:22;;;;;;;4.10;2.42;;;;;;;7.33;86.98;97227.38;5097069;28;20772;-70
2022/04/01 00:26:51;;;;;;;5.05;2.58;;;;;;;7.31;87.22;97224.06;5096860;28;20048;-70
2022/04/01 00:29:21;;;;;;;4.38;2.45;;;;;;;7.31;87.05;97221.53;5097065;28;20126;-70
2022/04/01 00:31:58;;;;;;;3.97;2.20;;;;;;;7.27;87.65;97227.56;5097012;28;20126;-70
2022/04/01 00:34:28;;;;;;;4.53;2.40;;;;;;;7.30;87.59;97225.78;5078879;28;20047;-70
2022/04/01 00:36:58;;;;;;;;;;;;;;;7.35;86.98;97229.00;5097042;28;20044;-70
2022/04/01 00:39:31;;;;;;;4.18;2.25;;;;;;;7.28;87.58;97214.84;5096571;28;20389;-70
2022/04/01 00:42:02;;;;;;;5.32;3.20;;;;;;;7.33;87.64;97220.63;5078725;28;20501;-70
2022/04/01 00:44:33;;;;;;;4.22;2.50;;;;;;;7.37;87.22;97226.44;5096503;28;20048;-70
2022/04/01 00:47:03;;;;;;;4.43;2.40;;;;;;;7.32;87.64;97225.72;5096393;28;20059;-70
2022/04/01 00:49:33;;;;;;;4.15;2.40;;;;;;;7.27;87.51;97223.31;5096375;28;20048;-70
2022/04/01 00:52:05;;;;;;;3.78;1.98;;;;;;;7.26;86.69;97224.19;5096281;28;20052;-70
2022/04/01 00:54:36;;;;;;;3.85;2.20;;;;;;;7.29;87.38;97226.63;5096811;28;20143;-70
2022/04/01 00:57:08;;;;;;;4.57;2.30;;;;;;;7.32;87.67;97226.56;5095873;28;20447;-70
2022/04/01 00:59:37;;;;;;;4.75;2.40;;;;;;;7.27;87.46;97227.56;5096550;28;20429;-70
2022/04/01 01:02:08;;;;;;;4.10;2.00;;;;;;;7.16;86.92;97224.47;5096061;28;20058;-70
2022/04/01 01:04:38;;;;;;;4.70;1.98;;;;;;;7.18;87.61;97225.25;5096023;28;20052;-70
2022/04/01 01:07:07;;;;;;;;;;;;;;;7.15;87.30;97222.84;5097009;28;20375;-70
2022/04/01 01:09:42;;;;;;;3.53;1.67;;;;;;;7.13;87.46;97217.78;5096101;28;19989;-70
2022/04/01 01:12:13;;;;;;;3.33;2.00;;;;;;;7.11;87.96;97221.22;5077932;28;20048;-70
2022/04/01 01:14:44;;;;;;;4.18;2.20;;;;;;;7.17;87.43;97218.53;5096135;28;20075;-70
2022/04/01 01:17:14;;;;;;;3.08;1.85;;;;;;;7.16;87.83;97216.88;5095838;28;20072;-70
2022/04/01 01:19:45;;;;;;;;;;;;;;;7.16;87.85;97220.25;5096537;28;20131;-70
2022/04/01 01:22:16;;;;;;;3.78;1.85;;;;;;;7.24;88.16;97217.50;5077932;28;19920;-70
2022/04/01 01:24:46;;;;;;;4.82;2.38;;;;;;;7.12;87.24;97207.69;5095720;28;20493;-70
2022/04/01 01:27:15;;;;;;;3.50;2.10;;;;;;;6.95;87.71;97204.75;5077605;28;20056;-70
2022/04/01 01:29:45;;;;;;;2.40;1.45;;;;;;;7.00;88.24;97208.00;5095641;28;20032;-70
2022/04/01 01:32:19;;;;;;;3.95;1.92;;;;;;;6.84;87.92;97216.91;5077794;28;20070;-70
2022/04/01 01:34:48;;;;;;;3.95;1.80;;;;;;;6.81;88.19;97211.91;5077485;28;20044;-69
2022/04/01 01:37:17;;;;;;;4.60;2.50;;;;;;;6.80;88.47;97200.09;5095414;28;20056;-69
2022/04/01 01:39:49;;;;;;;3.10;1.65;;;;;;;6.73;88.50;97197.72;5095431;28;20055;-69
2022/04/01 01:42:19;;;;;;;4.45;2.42;;;;;;;6.72;88.44;97197.75;5077274;28;20048;-69
2022/04/01 01:44:48;;;;;;;4.43;2.20;;;;;;;6.65;88.59;97194.53;5077550;28;20490;-69
2022/04/01 01:47:17;;;;;;;4.13;2.08;;;;;;;6.64;89.08;97192.91;5077376;28;20366;-69
2022/04/01 01:55:10;;;;;;;4.35;2.08;;;;;;;6.67;89.32;97184.38;5077142;28;20052;-70
2022/04/01 01:57:39;;;;;;;3.78;1.67;;;;;;;6.65;89.08;97186.09;5077525;28;20044;-70
2022/04/01 02:00:11;;;;;;;3.53;1.93;;;;;;;6.64;88.71;97187.00;5076984;28;20036;-69
2022/04/01 02:02:41;;;;;;;3.45;1.88;;;;;;;6.56;89.00;97171.97;5076836;28;20101;-70
2022/04/01 02:05:11;;;;;;;4.78;1.92;;;;;;;6.71;88.38;97186.81;5094910;28;20040;-70
2022/04/01 02:07:39;;;;;;;4.17;2.20;;;;;;;6.58;88.52;97179.53;5076488;28;20047;-70
2022/04/01 02:10:10;;;;;;;4.53;2.22;;;;;;;6.72;89.21;97192.69;5094440;28;20052;-70
2022/04/01 02:12:39;;;;;;;5.50;2.40;;;;;;;6.76;88.75;97194.28;5077020;28;20058;-70
2022/04/01 02:15:10;;;;;;;3.88;2.08;;;;;;;6.70;88.41;97195.25;5094726;28;20081;-70
2022/04/01 02:17:40;;;;;;;4.28;2.28;;;;;;;6.80;88.95;97195.03;5094832;28;20048;-70
2022/04/01 02:20:10;;;;;;;4.60;3.20;;;;;;;6.75;88.02;97198.50;5076669;28;20077;-70
2022/04/01 02:22:39;;;;;;;4.65;2.60;;;;;;;6.68;88.03;97191.94;5095126;28;20063;-69
2022/04/01 02:25:12;;;;;;;3.83;1.98;;;;;;;6.63;88.12;97190.38;5076672;28;20044;-70
2022/04/01 02:27:42;;;;;;;4.00;2.25;;;;;;;6.62;88.36;97192.06;5094442;28;20055;-70
2022/04/01 02:30:11;;;;;;;;;;;;;;;6.54;87.92;97191.47;5094871;28;20052;-70
2022/04/01 02:32:52;;;;;;;4.07;2.22;;;;;;;6.55;87.97;97195.63;5094448;28;19920;-70
2022/04/01 02:35:29;;;;;;;4.68;2.50;;;;;;;6.67;88.37;97192.78;5076646;28;20051;-70
2022/04/01 02:38:00;;;;;;;4.75;2.67;;;;;;;6.64;87.81;97194.59;5076193;28;20074;-70
2022/04/01 02:40:31;;;;;;;4.68;2.42;;;;;;;6.63;87.73;97190.38;5077365;28;20114;-69
2022/04/01 02:43:00;;;;;;;4.28;2.35;;;;;;;6.67;87.35;97190.25;5076437;28;20449;-69
2022/04/01 02:45:29;;;;;;;2.83;1.48;;;;;;;6.65;87.99;97181.88;5076188;28;20043;-70
2022/04/01 02:47:58;;;;;;;3.83;2.38;;;;;;;6.64;87.45;97180.22;5076422;28;20044;-70
2022/04/01 02:50:37;;;;;;;5.22;2.65;;;;;;;6.78;87.71;97179.03;5076341;28;20048;-70
2022/04/01 02:53:06;;;;;;;;;;;;;;;6.83;87.83;97179.75;5094438;28;20089;-70
2022/04/01 02:55:37;;;;;;;3.58;1.92;;;;;;;6.73;87.28;97164.78;5076556;28;19927;-70
2022/04/01 02:58:07;;;;;;;4.40;1.95;;;;;;;6.78;87.24;97176.50;5093954;28;20130;-69
2022/04/01 03:00:37;;;;;;;4.32;2.38;;;;;;;6.70;87.07;97164.84;5075898;28;20040;-69
2022/04/01 03:03:08;;;;;;;3.25;1.80;;;;;;;6.72;86.98;97173.25;5075864;28;20048;-70
2022/04/01 03:05:38;;;;;;;3.22;2.00;;;;;;;6.72;86.75;97175.78;5076418;28;20497;-70
2022/04/01 03:08:09;;;;;;;4.00;2.20;;;;;;;6.71;86.80;97181.72;5094125;28;20094;-70
2022/04/01 03:10:41;;;;;;;4.75;2.40;;;;;;;6.70;86.55;97174.97;5076116;28;20055;-70
2022/04/01 03:13:11;;;;;;;4.88;2.40;;;;;;;6.77;86.99;97175.66;5075832;28;20135;-70
2022/04/01 03:15:56;;;;;;;3.95;2.10;;;;;;;6.68;86.69;97171.66;5075984;28;20482;-70
2022/04/01 03:18:45;;;;;;;3.70;2.20;;;;;;;6.72;86.58;97175.78;5092913;28;20058;-70
2022/04/01 03:21:15;;;;;;;3.95;2.13;;;;;;;6.77;86.31;97169.78;5075624;28;20032;-70
2022/04/01 03:23:47;;;;;;;4.82;2.30;;;;;;;6.73;86.65;97154.63;5093610;28;20067;-70
2022/04/01 03:26:21;;;;;;;5.00;2.40;;;;;;;6.77;86.56;97168.03;5075983;28;20044;-70
2022/04/01 03:29:01;;;;;;;4.72;2.20;;;;;;;6.72;86.56;97175.78;5093511;28;20048;-70
2022/04/01 03:31:31;;;;;;;4.13;2.50;;;;;;;6.68;86.78;97171.66;5075889;28;20040;-70
2022/04/01 03:34:03;;;;;;;5.15;2.53;;;;;;;6.69;86.51;97165.72;5075574;28;20113;-70
2022/04/01 03:36:33;;;;;;;4.13;2.40;;;;;;;6.78;86.55;97171.41;5075814;28;20443;-70
2022/04/01 03:39:03;;;;;;;4.70;2.40;;;;;;;6.72;86.57;97168.16;5075800;28;20044;-70
2022/04/01 03:41:45;;;;;;;4.10;2.42;;;;;;;6.68;86.34;97168.28;5093748;28;20063;-70
2022/04/01 03:44:15;;;;;;;3.88;2.10;;;;;;;6.78;86.26;97161.28;5075371;28;20093;-70
2022/04/01 03:46:51;;;;;;;3.53;1.90;;;;;;;6.73;85.72;97159.72;5075397;28;20055;-70
2022/04/01 03:49:23;;;;;;;3.50;2.08;;;;;;;6.71;86.14;97163.16;5093352;28;20071;-70
2022/04/01 03:51:56;;;;;;;3.30;1.90;;;;;;;6.75;86.24;97175.69;5093688;28;20117;-70
2022/04/01 03:54:28;;;;;;;3.40;1.95;;;;;;;6.80;86.57;97165.44;5075324;28;20043;-70
2022/04/01 03:57:05;;;;;;;4.53;2.15;;;;;;;6.78;86.12;97176.50;5093416;28;20043;-70
2022/04/01 03:59:51;;;;;;;4.07;2.22;;;;;;;6.74;85.36;97170.69;5093257;28;20056;-70
2022/04/01 04:02:34;;;;;;;4.75;2.42;;;;;;;6.64;85.79;97175.16;5093570;28;20490;-70
2022/04/01 04:05:06;;;;;;;3.88;2.00;;;;;;;6.68;85.49;97176.72;5075357;28;20048;-70
2022/04/01 04:07:35;;;;;;;6.80;2.25;;;;;;;6.69;85.28;97173.31;5093214;28;20048;-70
2022/04/01 04:10:10;;;;;;;3.25;1.80;;;;;;;6.62;85.37;97174.34;5075475;28;20075;-70
2022/04/01 04:13:07;;;;;;;3.00;1.70;;;;;;;6.64;85.27;97175.16;5071851;28;20401;-70
2022/04/01 04:15:45;;;;;;;4.10;2.05;;;;;;;6.70;85.38;97174.97;5075183;28;20101;-70
2022/04/01 04:18:18;;;;;;;3.65;2.10;;;;;;;6.64;85.29;97176.84;5092907;28;20048;-71
2022/04/01 04:21:01;;;;;;;3.47;1.77;;;;;;;6.53;84.80;97174.59;5075279;28;20052;-71
2022/04/01 04:23:39;;;;;;;3.58;2.05;;;;;;;6.64;85.41;97174.31;5074986;28;20478;-70
2022/04/01 04:26:13;;;;;;;2.95;1.50;;;;;;;6.52;84.38;97175.47;5075312;28;20090;-71
2022/04/01 04:28:53;;;;;;;4.13;2.13;;;;;;;6.53;84.81;97171.22;5075069;28;20081;-70
2022/04/01 04:31:35;;;;;;;4.10;1.98;;;;;;;6.43;84.38;97174.88;5093265;28;20071;-70
2022/04/01 04:34:19;;;;;;;2.47;1.42;;;;;;;6.41;84.64;97166.44;5097079;28;20071;-70
2022/04/01 04:36:52;;;;;;;3.78;1.83;;;;;;;6.49;84.28;97177.22;5096923;28;20075;-70
2022/04/01 04:39:31;;;;;;;4.10;1.80;;;;;;;6.48;84.56;97173.03;5078501;28;20048;-70
2022/04/01 04:42:02;;;;;;;;;;;;;;;6.50;84.57;97181.44;5078965;28;20123;-70
2022/04/01 04:44:34;;;;;;;3.45;1.67;;;;;;;6.21;84.41;97139.09;5096405;28;19920;-70
2022/04/01 04:47:05;;;;;;;2.88;1.63;;;;;;;6.55;84.39;97180.44;5078524;28;20048;-70
2022/04/01 04:49:37;;;;;;;3.95;1.92;;;;;;;6.52;84.10;97179.69;5078359;28;20071;-70
2022/04/01 04:52:07;;;;;;;3.97;1.90;;;;;;;6.57;84.75;97177.88;5078592;28;20180;-70
2022/04/01 04:54:45;;;;;;;4.32;1.90;;;;;;;6.50;84.48;97176.38;5078491;28;20508;-70
2022/04/01 04:57:20;;;;;;;3.90;2.10;;;;;;;6.51;84.37;97173.78;5096338;28;20040;-70
2022/04/01 04:59:53;;;;;;;3.40;1.73;;;;;;;6.47;84.85;97174.75;5078130;28;20055;-70
2022/04/01 05:02:55;;;;;;;3.72;1.90;;;;;;;6.44;84.45;97182.41;5078324;28;20424;-70
2022/04/01 05:05:32;;;;;;;3.58;1.90;;;;;;;6.49;84.66;97175.53;5078104;28;20046;-70
2022/04/01 05:08:18;;;;;;;3.15;1.75;;;;;;;6.51;84.59;97178.03;5096730;28;20509;-70
2022/04/01 05:11:18;;;;;;;3.67;1.90;;;;;;;6.58;84.40;97180.38;5085097;28;20055;-70
2022/04/01 05:13:57;;;;;;;3.00;1.75;;;;;;;6.59;84.63;97174.44;5095900;28;20040;-71
2022/04/01 05:16:35;;;;;;;2.80;1.55;;;;;;;6.60;84.39;97178.63;5078066;28;20078;-70
2022/04/01 05:19:10;;;;;;;3.43;1.80;;;;;;;6.68;83.99;97176.72;5077655;28;20399;-70
2022/04/01 05:21:51;;;;;;;3.90;1.77;;;;;;;6.56;84.16;97184.66;5078215;28;20577;-71
2022/04/01 05:24:27;;;;;;;3.50;1.83;;;;;;;6.65;83.64;97186.94;5077629;28;20044;-71
2022/04/01 05:27:02;;;;;;;6.95;1.75;;;;;;;6.60;83.68;97188.75;5077645;28;20052;-70
2022/04/01 05:29:44;;;;;;;3.30;1.65;;;;;;;6.58;83.63;97185.44;5095722;28;20063;-70
2022/04/01 05:32:19;;;;;;;3.42;1.98;;;;;;;6.77;82.91;97185.78;5061003;28;20072;-70
2022/04/01 05:34:51;;;;;;;3.10;1.83;;;;;;;6.74;82.77;97189.22;5078079;28;20067;-70
2022/04/01 05:37:24;;;;;;;2.72;1.58;;;;;;;6.84;82.88;97187.28;5077500;28;20127;-70
2022/04/01 05:39:54;;;;;;;4.20;2.00;;;;;;;6.78;81.88;97191.69;5077736;28;20378;-71
2022/04/01 05:42:27;;;;;;;2.78;1.60;;;;;;;6.74;82.32;97181.63;5077040;28;20044;-70
2022/04/01 05:45:08;;;;;;;4.72;1.90;;;;;;;6.84;82.59;97183.94;5095325;28;20048;-71
2022/04/01 05:47:40;;;;;;;3.58;1.63;;;;;;;6.92;82.17;97187.09;5077240;28;20052;-70
2022/04/01 05:50:10;;;;;;;3.05;1.80;;;;;;;6.86;81.72;97189.81;5077536;28;20044;-71
2022/04/01 05:52:40;;;;;;;2.83;1.50;;;;;;;6.84;81.54;97186.47;5077636;28;20396;-71
2022/04/01 05:55:11;;;;;;;3.40;1.73;;;;;;;6.83;81.76;97184.81;5076979;28;20040;-71
2022/04/01 05:57:42;;;;;;;3.70;1.75;;;;;;;6.75;81.45;97193.44;5076996;28;20101;-71
2022/04/01 06:00:12;;;;;;;4.07;2.03;;;;;;;6.80;81.27;97190.78;5077017;28;20067;-71
2022/04/01 06:03:08;;;;;;;2.42;1.50;;;;;;;6.94;81.55;97192.94;5077122;28;20576;-70
2022/04/01 06:05:42;;;;;;;3.95;1.80;;;;;;;7.05;81.71;97196.06;5094866;28;20055;-71
2022/04/01 06:08:18;;;;;;;3.38;1.88;;;;;;;7.11;80.84;97195.88;5076724;28;20047;-71
2022/04/01 06:11:00;;;;;;;3.72;1.50;;;;;;;7.10;81.27;97194.22;5077389;28;20153;-71
2022/04/01 06:13:47;;;;;;;3.20;1.60;;;;;;;7.07;81.13;97194.31;5094736;28;20052;-70
2022/04/01 06:16:45;;;;;;;3.38;1.75;;;;;;;7.08;81.58;97195.97;5083628;28;20489;-71
2022/04/01 06:19:26;;;;;;;4.85;1.85;;;;;;;7.14;81.40;97203.41;5076647;28;20517;-70
2022/04/01 06:22:04;;;;;;;4.05;1.88;;;;;;;7.14;81.27;97205.94;5076824;28;20048;-70
2022/04/01 06:24:59;;;;;;;2.78;1.77;;;;;;;7.00;81.12;97200.41;5094716;28;20512;-71
2022/04/01 06:27:38;;;;;;;3.75;1.67;;;;;;;7.03;80.84;97198.59;5076394;28;20048;-70
2022/04/01 06:30:10;;;;;;;3.03;1.55;;;;;;;7.14;80.59;97201.72;5076361;28;20060;-70
2022/04/01 06:32:50;;;;;;;3.47;1.67;;;;;;;7.23;81.35;97205.69;5076254;28;20044;-70
2022/04/01 06:35:28;;;;;;;2.80;1.50;;;;;;;7.21;80.55;97193.06;5076305;28;20131;-71
2022/04/01 06:38:09;;;;;;;2.47;1.30;;;;;;;7.24;80.81;97207.34;5094346;28;20044;-71
2022/04/01 06:40:42;;;;;;;2.10;1.30;;;;;;;7.19;80.88;97209.19;5094172;28;20052;-70
2022/04/01 06:43:17;;;;;;;2.53;1.40;;;;;;;7.17;80.16;97213.47;5076384;28;20071;-71
2022/04/01 06:45:57;;;;;;;2.80;1.67;;;;;;;7.25;81.14;97203.94;5093928;28;20055;-70
2022/04/01 06:48:32;;;;;;;2.80;1.38;;;;;;;7.32;80.17;97216.41;5094097;28;20048;-71
2022/04/01 06:51:15;;;;;;;2.42;1.23;;;;;;;7.17;79.92;97196.56;5094090;28;20040;-70
2022/04/01 06:53:55;;;;;;;3.05;1.52;;;;;;;7.17;80.37;97211.78;5091073;28;20044;-70
2022/04/01 06:56:47;;;;;;;3.38;1.50;;;;;;;7.15;79.50;97207.63;5088255;28;20071;-71
2022/04/01 06:59:17;;;;;;;3.33;1.50;;;;;;;7.29;80.07;97203.00;5094257;28;20039;-70
2022/04/01 07:01:46;;;;;;;2.85;1.60;;;;;;;7.36;79.94;97212.09;5088044;28;20040;-71
2022/04/01 07:04:15;;;;;;;3.13;1.63;;;;;;;7.39;80.16;97212.00;5102052;28;20054;-71
2022/04/01 07:06:47;;;;;;;4.33;2.10;;;;;;;7.26;79.74;97205.59;5114413;28;20393;-71
2022/04/01 07:09:16;;;;;;;3.03;1.85;;;;;;;7.38;79.35;97210.34;5114125;28;20054;-70
2022/04/01 07:11:44;;;;;;;3.60;1.60;;;;;;;7.21;79.52;97209.97;5114147;28;20047;-71
2022/04/01 07:14:13;;;;;;;3.47;1.85;;;;;;;7.36;79.81;97212.09;5114295;28;20070;-70
2022/04/01 07:16:42;;;;;;;2.58;1.23;;;;;;;7.40;80.04;97213.66;5114312;28;20398;-69
2022/04/01 07:19:15;;;;;;;2.88;1.80;;;;;;;7.42;79.43;97211.91;5113892;28;20047;-69
2022/04/01 07:21:45;;;;;;;2.28;1.23;;;;;;;7.40;79.68;97224.66;5114224;28;20071;-70
2022/04/01 07:24:15;;;;;;;2.97;1.50;;;;;;;7.30;79.21;97217.31;5113979;28;20493;-70
2022/04/01 07:26:44;;;;;;;3.05;1.50;;;;;;;7.37;79.91;97208.66;5114208;28;20126;-70
2022/04/01 07:29:14;;;;;;;3.08;1.70;;;;;;;7.32;79.29;97215.56;5111715;28;20028;-70
2022/04/01 07:34:27;;;;;;;3.60;1.80;;;;;;;7.53;79.71;97220.06;5073635;28;20074;-71
2022/04/01 07:36:57;;;;;;;3.50;1.20;;;;;;;7.54;78.92;97216.63;5073297;28;20490;-71
2022/04/01 07:39:26;;;;;;;2.88;1.60;;;;;;;7.50;79.71;97224.38;5073575;28;20398;-70
2022/04/01 07:41:55;;;;;;;3.22;1.60;;;;;;;7.41;79.16;97225.50;5073325;28;20052;-71
2022/04/01 07:44:25;;;;;;;3.88;1.70;;;;;;;7.51;78.66;97231.94;5106659;28;20113;-70
2022/04/01 07:46:55;;;;;;;2.67;1.30;;;;;;;7.48;78.54;97221.91;5098820;28;20097;-71
2022/04/01 07:49:24;;;;;;;3.05;1.70;;;;;;;7.62;79.37;97229.94;5079622;28;20056;-70
2022/04/01 07:52:16;;;;;;;4.47;1.90;;;;;;;7.73;80.29;97232.16;5058789;28;20043;-71
2022/04/01 07:54:49;;;;;;;2.67;1.42;;;;;;;7.61;79.12;97233.34;5092642;28;20089;-71
2022/04/01 07:57:19;;;;;;;2.95;1.80;;;;;;;7.74;79.84;97239.75;5089975;28;20044;-69
2022/04/01 07:59:48;;;;;;;2.38;1.42;;;;;;;7.86;80.15;97236.88;5093002;28;20089;-71
2022/04/01 08:02:18;;;;;;;2.92;1.50;;;;;;;7.80;78.64;97234.50;5092639;28;20040;-71
2022/04/01 08:04:47;;;;;;;;;;;;;;;7.82;78.67;97237.00;5092990;28;20048;-70
2022/04/01 08:07:17;;;;;;;2.25;1.27;;;;;;;7.75;78.80;97231.25;5108589;28;19919;-70
2022/04/01 08:09:46;;;;;;;2.38;1.40;;;;;;;7.90;78.69;97235.88;5117592;28;20056;-70
2022/04/01 08:12:15;;;;;;;3.60;1.77;;;;;;;8.00;78.19;97234.75;5104262;28;20097;-71
2022/04/01 08:14:45;;;;;;;2.55;1.50;;;;;;;8.05;78.37;97237.97;5094429;28;20024;-71
2022/04/01 08:17:14;;;;;;;2.95;1.60;;;;;;;8.26;78.43;97240.72;5098500;28;20496;-70
2022/04/01 08:19:44;;;;;;;3.45;1.70;;;;;;;8.43;78.64;97247.00;5097131;28;20131;-70
2022/04/01 08:22:13;;;;;;;3.13;1.52;;;;;;;8.30;78.24;97250.78;5096819;28;20056;-71
2022/04/01 08:24:44;;;;;;;2.33;1.13;;;;;;;8.22;77.99;97251.88;5099208;28;20432;-71
2022/04/01 08:27:14;;;;;;;2.85;1.40;;;;;;;8.13;77.82;97256.34;5098899;28;20040;-71
2022/04/01 08:29:44;;;;;;;2.67;1.25;;;;;;;8.09;76.94;97262.41;5096785;28;20044;-71
2022/04/01 08:32:13;;;;;;;3.42;1.30;;;;;;;7.91;77.48;97262.94;5097273;28;20036;-71
2022/04/01 08:34:42;;;;;;;2.25;1.30;;;;;;;7.89;77.90;97259.59;5096859;28;20138;-71
2022/04/01 08:37:11;;;;;;;2.27;1.37;;;;;;;8.21;77.88;97257.81;5096608;28;20044;-71
2022/04/01 08:39:43;;;;;;;2.63;1.80;;;;;;;8.31;77.44;97256.69;5098096;28;20505;-73
2022/04/01 08:42:14;;;;;;;3.53;1.63;;;;;;;8.33;77.58;97254.94;5117217;28;20377;-71
2022/04/01 08:44:48;;;;;;;2.78;1.58;;;;;;;8.28;76.67;97261.91;5101883;28;20047;-71
2022/04/01 08:47:17;;;;;;;2.47;1.30;;;;;;;8.31;77.11;97261.78;5096193;28;20051;-71
2022/04/01 08:49:46;;;;;;;2.08;1.20;;;;;;;8.24;76.43;97260.28;5098857;28;20135;-71
2022/04/01 08:52:16;;;;;;;3.10;1.50;;;;;;;8.09;76.02;97272.56;5096266;28;20044;-71
2022/04/01 08:54:45;;;;;;;2.50;1.40;;;;;;;8.30;76.34;97260.13;5096528;28;20134;-71
2022/04/01 08:57:21;;;;;;;2.45;1.20;;;;;;;8.27;76.69;97266.13;5095845;28;20101;-71
2022/04/01 08:59:50;;;;;;;3.92;1.50;;;;;;;8.23;77.26;97268.78;5096884;28;20055;-71
2022/04/01 09:02:19;;;;;;;2.63;1.50;;;;;;;8.30;76.80;97260.94;5091881;28;20047;-70
2022/04/01 09:04:53;;;;;;;2.92;1.50;;;;;;;8.17;76.32;97248.63;5095144;28;20050;-71
2022/04/01 09:07:25;;;;;;;2.65;1.33;;;;;;;8.29;76.36;97272.00;5095587;28;20051;-71
2022/04/01 09:10:01;;;;;;;4.28;1.42;;;;;;;8.34;76.20;97266.78;5091777;28;20040;-73
2022/04/01 09:12:32;;;;;;;3.05;1.10;;;;;;;8.43;76.82;97274.09;5093023;28;20047;-71
2022/04/01 09:15:02;;;;;;;2.83;1.30;;;;;;;8.33;76.46;97270.19;5103709;28;20040;-70
2022/04/01 09:17:42;;;;;;;2.92;1.13;;;;;;;8.37;75.97;97267.53;5111303;28;20120;-72
2022/04/01 09:20:12;;;;;;;3.05;1.48;;;;;;;8.33;75.69;97270.19;5116109;28;20052;-71
2022/04/01 09:22:43;;;;;;;3.00;1.50;;;;;;;8.28;75.87;97266.97;5097200;28;20075;-71
2022/04/01 09:25:14;;;;;;;2.92;1.55;;;;;;;8.57;75.58;97271.97;5084331;28;20070;-72
2022/04/01 09:27:47;;;;;;;3.25;1.40;;;;;;;8.59;74.43;97267.69;5092257;28;20510;-70
2022/04/01 09:30:18;;;;;;;2.75;1.35;;;;;;;8.84;74.71;97267.72;5077905;28;20494;-71
2022/04/01 09:32:51;;;;;;;2.40;1.42;;;;;;;8.77;73.64;97272.16;5101189;28;20066;-71
2022/04/01 09:35:24;;;;;;;2.47;1.42;;;;;;;8.83;73.64;97274.50;5098025;28;20052;-71
2022/04/01 09:37:54;;;;;;;4.30;1.50;;;;;;;8.87;74.06;97271.00;5115731;28;20043;-72
2022/04/01 09:40:25;;;;;;;4.15;1.55;;;;;;;8.78;74.33;97278.94;5095283;28;20068;-71
2022/04/01 09:42:58;;;;;;;3.72;1.50;;;;;;;8.73;73.93;97290.97;5097172;28;20116;-71
2022/04/01 09:45:30;;;;;;;3.17;1.80;;;;;;;8.58;73.94;97283.81;5115647;28;20060;-71
2022/04/01 09:48:00;;;;;;;3.30;1.60;;;;;;;8.75;74.57;97294.28;5114508;28;20492;-71
2022/04/01 09:50:31;;;;;;;2.78;1.80;;;;;;;8.84;74.61;97286.34;5112448;28;20044;-71
2022/04/01 09:53:08;;;;;;;2.88;1.50;;;;;;;8.63;73.18;97289.56;5110953;28;20453;-72
2022/04/01 09:55:38;;;;;;;1.90;1.35;;;;;;;8.70;73.17;97293.59;5083690;28;20053;-71
2022/04/01 09:58:09;;;;;;;;;;;;;;;8.83;73.95;97292.28;5057438;28;20052;-70
2022/04/01 10:00:40;;;;;;;2.70;1.45;;;;;;;8.82;73.61;97294.91;5073906;28;19924;-71
2022/04/01 10:03:11;;;;;;;2.55;1.42;;;;;;;8.86;73.17;97291.38;5074729;28;20045;-70
2022/04/01 10:05:41;;;;;;;1.65;1.02;;;;;;;8.89;73.32;97289.56;5075003;28;20387;-70
2022/04/01 10:08:12;;;;;;;2.90;1.40;;;;;;;9.05;73.55;97293.25;5074413;28;20052;-71
2022/04/01 10:10:43;;;;;;;2.40;1.48;;;;;;;9.07;72.25;97281.31;5074597;28;20131;-70
2022/04/01 10:13:19;;;;;;;2.25;1.42;;;;;;;9.14;71.94;97292.94;5074441;28;20052;-70
2022/04/01 10:15:50;;;;;;;3.85;2.13;;;;;;;9.50;71.40;97290.06;5074812;28;20512;-70
2022/04/01 10:18:42;;;;;;;4.00;2.00;;;;;;;9.53;71.22;97295.03;5081271;28;20047;-70
2022/04/01 10:21:13;;;;;;;2.80;1.60;;;;;;;9.61;71.00;97293.03;5098281;28;20078;-70
2022/04/01 10:23:48;;;;;;;1.85;1.30;;;;;;;9.66;71.71;97293.72;5114911;28;20047;-70
2022/04/01 10:26:22;;;;;;;1.92;1.10;;;;;;;10.00;71.23;97286.53;5114868;28;20046;-70
2022/04/01 10:28:53;;;;;;;2.80;1.38;;;;;;;10.23;71.41;97294.16;5103274;28;20052;-71
2022/04/01 10:31:24;;;;;;;2.20;1.00;;;;;;;9.95;70.48;97306.25;5082411;28;20044;-71
2022/04/01 10:33:53;;;;;;;2.53;1.23;;;;;;;9.42;69.90;97303.88;5074188;28;20490;-71
2022/04/01 10:36:33;;;;;;;2.90;1.53;;;;;;;9.13;70.65;97306.56;5074357;28;20057;-71
2022/04/01 10:39:05;;;;;;;2.90;1.50;;;;;;;9.09;71.69;97320.28;5106083;28;20039;-71
2022/04/01 10:41:34;;;;;;;2.83;1.20;;;;;;;9.20;71.59;97313.13;5103118;28;20100;-70
2022/04/01 10:44:06;;;;;;;2.07;1.30;;;;;;;9.21;71.59;97314.75;5113354;28;20040;-71
2022/04/01 10:46:56;;;;;;;2.90;1.50;;;;;;;9.24;70.82;97309.59;5114716;28;20435;-71
2022/04/01 10:52:21;;;;;;;3.05;1.20;;;;;;;8.97;72.14;97310.50;5074597;28;20448;-71
2022/04/01 10:54:52;;;;;;;2.50;1.20;;;;;;;9.14;72.25;97308.22;5073872;28;20048;-71
2022/04/01 10:57:29;;;;;;;2.42;1.30;;;;;;;9.18;72.40;97309.81;5073812;28;20075;-71
2022/04/01 11:00:04;;;;;;;2.63;1.45;;;;;;;9.14;72.15;97315.84;5083293;28;20050;-71
2022/04/01 11:02:33;;;;;;;3.92;2.47;;;;;;;9.31;73.23;97316.13;5082710;28;20036;-71
2022/04/01 11:05:23;;;;;;;2.03;1.15;;;;;;;9.13;71.95;97316.75;5094101;28;20036;-71
2022/04/01 11:08:16;;;;;;;3.55;1.30;;;;;;;9.00;71.57;97318.03;5094049;28;20106;-71
2022/04/01 11:11:04;;;;;;;2.65;1.23;;;;;;;9.00;71.51;97315.47;5093881;28;20097;-71
2022/04/01 11:13:34;;;;;;;1.95;1.10;;;;;;;8.89;70.76;97322.63;5093803;28;20078;-71
2022/04/01 11:16:13;;;;;;;;;;;;;;;8.88;71.05;97320.16;5094776;28;20052;-71
2022/04/01 11:18:53;;;;;;;;;;;;;;;9.08;70.52;97313.53;5099643;28;19923;-71
2022/04/01 11:21:31;;;;;;;4.03;1.38;;;;;;;9.23;69.87;97312.19;5092888;28;19923;-72
2022/04/01 11:24:21;;;;;;;2.95;1.40;;;;;;;9.22;68.89;97315.59;5114033;28;20073;-71
2022/04/01 11:26:50;;;;;;;2.80;1.40;;;;;;;9.44;68.42;97314.84;5096057;28;20085;-72
2022/04/01 11:29:25;;;;;;;2.92;1.20;;;;;;;9.53;68.12;97317.94;5093420;28;20076;-71
2022/04/01 11:32:03;;;;;;;1.77;1.10;;;;;;;9.44;68.10;97322.47;5077476;28;20138;-72
2022/04/01 11:34:33;;;;;;;2.88;1.30;;;;;;;9.44;67.04;97317.38;5093701;28;20436;-72
2022/04/01 11:37:06;;;;;;;2.10;1.20;;;;;;;9.34;68.01;97321.13;5081462;28;20102;-71
2022/04/01 11:39:36;;;;;;;3.10;1.40;;;;;;;9.53;67.67;97321.31;5075678;28;20048;-70
2022/04/01 11:42:08;;;;;;;2.90;1.33;;;;;;;9.63;67.91;97322.66;5066938;28;20102;-71
2022/04/01 11:44:37;;;;;;;3.22;1.38;;;;;;;9.54;67.97;97324.69;5077755;28;20064;-70
2022/04/01 11:47:08;;;;;;;2.63;1.45;;;;;;;9.59;67.98;97335.56;5077557;28;20041;-71
2022/04/01 11:49:37;;;;;;;2.50;1.50;;;;;;;9.40;67.95;97336.19;5077528;28;20044;-71
2022/04/01 11:52:08;;;;;;;2.40;1.38;;;;;;;9.11;68.51;97328.69;5077157;28;20509;-71
2022/04/01 11:54:37;;;;;;;2.10;1.17;;;;;;;8.87;68.02;97329.50;5077311;28;20131;-71
2022/04/01 11:57:11;;;;;;;2.80;1.50;;;;;;;8.74;68.83;97331.56;5077351;28;20064;-71
2022/04/01 11:59:40;;;;;;;3.05;1.58;;;;;;;8.76;69.53;97341.69;5077396;28;20114;-71
2022/04/01 12:02:10;;;;;;;4.05;2.00;;;;;;;9.00;69.94;97333.28;5077018;28;20040;-70
2022/04/01 12:04:39;;;;;;;6.38;3.95;;;;;;;8.89;69.20;97337.91;5077098;28;20124;-71
2022/04/01 12:09:52;;;;;;;4.15;1.52;;;;;;;9.00;68.58;97337.56;5077180;28;20485;-70
2022/04/01 12:12:23;;;;;;;;;;;;;;;8.96;69.41;97344.44;5077802;28;20486;-70
2022/04/01 12:14:52;;;;;;;;;;;;;;;8.94;69.65;97348.75;5077807;28;20384;-71
2022/04/01 12:17:28;;;;;;;3.80;1.58;;;;;;;8.66;68.70;97304.75;5097884;28;19921;-69
2022/04/01 12:20:10;;;;;;;6.28;2.35;;;;;;;9.06;68.97;97348.38;5090186;28;20053;-71
2022/04/01 12:23:01;;;;;;;4.20;2.55;;;;;;;8.90;67.73;97349.72;5095934;28;20105;-70
2022/04/01 12:25:32;;;;;;;3.85;2.03;;;;;;;8.87;68.12;97349.84;5099271;28;20060;-71
2022/04/01 12:28:02;;;;;;;4.32;1.80;;;;;;;8.74;68.11;97351.06;5097187;28;20400;-70